createdAt,value
2022-08-30T00:02:01.752Z,99565.03
2022-08-30T00:04:28.365Z,99566.25
2022-08-30T00:06:54.910Z,99568.25
2022-08-30T00:09:22.584Z,99572.50
2022-08-30T00:11:52.067Z,99573.31
2022-08-30T00:14:20.432Z,99564.38
2022-08-30T00:16:47.026Z,99555.59
2022-08-30T00:19:14.597Z,99556.25
2022-08-30T00:21:41.270Z,99562.53
2022-08-30T00:24:07.924Z,99560.34
2022-08-30T00:26:34.565Z,99562.22
2022-08-30T00:29:01.447Z,99568.94
2022-08-30T00:31:28.170Z,99572.00
2022-08-30T00:33:54.844Z,99573.53
2022-08-30T00:36:21.491Z,99570.47
2022-08-30T00:38:48.659Z,99572.34
2022-08-30T00:41:15.176Z,99571.50
2022-08-30T00:43:41.902Z,99575.72
2022-08-30T00:46:10.186Z,99570.31
2022-08-30T00:48:42.824Z,99579.09
2022-08-30T00:51:12.676Z,99575.88
2022-08-30T00:53:44.202Z,99576.56
2022-08-30T00:56:13.409Z,99573.34
2022-08-30T00:58:44.026Z,99584.31
2022-08-30T01:01:11.105Z,99588.56
2022-08-30T01:03:39.297Z,99595.78
2022-08-30T01:06:07.564Z,99594.78
2022-08-30T01:08:35.311Z,99595.44
2022-08-30T01:11:03.812Z,99597.47
2022-08-30T01:13:31.784Z,99597.78
2022-08-30T01:16:00.076Z,99597.78
2022-08-30T01:18:27.720Z,99597.63
2022-08-30T01:21:23.048Z,99590.28
2022-08-30T01:23:54.111Z,99594.00
2022-08-30T01:26:22.175Z,99590.94
2022-08-30T01:28:55.302Z,99597.50
2022-08-30T01:31:23.058Z,99594.13
2022-08-30T01:33:51.011Z,99601.34
2022-08-30T01:36:19.027Z,99600.34
2022-08-30T01:38:56.798Z,99605.22
2022-08-30T01:41:35.182Z,99606.78
2022-08-30T01:44:06.395Z,99614.41
2022-08-30T01:46:36.711Z,99611.63
2022-08-30T01:49:08.318Z,99610.94
2022-08-30T01:51:35.387Z,99605.38
2022-08-30T01:54:02.076Z,99602.34
2022-08-30T01:56:29.984Z,99612.00
2022-08-30T01:59:01.839Z,99600.00
2022-08-30T02:01:32.610Z,99606.78
2022-08-30T02:04:00.152Z,99602.88
2022-08-30T02:06:27.365Z,99603.56
2022-08-30T02:08:54.190Z,99600.69
2022-08-30T02:11:21.078Z,99598.69
2022-08-30T02:13:48.782Z,99608.25
2022-08-30T02:16:18.020Z,99610.78
2022-08-30T02:18:46.190Z,99612.22
2022-08-30T02:21:13.207Z,99618.63
2022-08-30T02:23:40.310Z,99621.44
2022-08-30T02:26:07.465Z,99625.28
2022-08-30T02:28:33.978Z,99618.34
2022-08-30T02:31:01.423Z,99619.84
2022-08-30T02:33:28.151Z,99621.53
2022-08-30T02:35:56.045Z,99625.03
2022-08-30T02:38:23.620Z,99620.44
2022-08-30T02:40:51.181Z,99617.38
2022-08-30T02:43:18.291Z,99619.56
2022-08-30T02:45:45.117Z,99606.91
2022-08-30T02:48:11.669Z,99608.25
2022-08-30T02:50:46.356Z,99609.81
2022-08-30T02:53:16.314Z,99590.91
2022-08-30T02:55:44.145Z,99595.94
2022-08-30T02:58:10.995Z,99596.91
2022-08-30T03:00:41.281Z,99591.53
2022-08-30T03:03:08.382Z,99594.38
2022-08-30T03:05:39.590Z,99599.63
2022-08-30T03:08:08.324Z,99592.66
2022-08-30T03:10:35.244Z,99598.38
2022-08-30T03:13:03.391Z,99587.06
2022-08-30T03:15:29.854Z,99595.44
2022-08-30T03:17:56.905Z,99611.06
2022-08-30T03:20:23.962Z,99601.75
2022-08-30T03:22:51.155Z,99603.63
2022-08-30T03:25:18.096Z,99609.84
2022-08-30T03:27:44.663Z,99605.63
2022-08-30T03:30:12.065Z,99608.88
2022-08-30T03:32:39.193Z,99598.59
2022-08-30T03:35:06.986Z,99596.59
2022-08-30T03:37:34.313Z,99597.63
2022-08-30T03:40:00.974Z,99604.06
2022-08-30T03:42:28.676Z,99605.72
2022-08-30T03:44:55.597Z,99601.00
2022-08-30T03:47:23.152Z,99606.41
2022-08-30T03:49:49.648Z,99601.00
2022-08-30T03:52:16.275Z,99593.63
2022-08-30T03:54:42.826Z,99607.13
2022-08-30T03:57:09.392Z,99602.03
2022-08-30T03:59:46.186Z,99597.78
2022-08-30T04:02:12.742Z,99605.84
2022-08-30T04:04:40.670Z,99602.44
2022-08-30T04:07:07.117Z,99608.88
2022-08-30T04:09:33.699Z,99609.16
2022-08-30T04:12:00.223Z,99606.94
2022-08-30T04:14:27.073Z,99607.28
2022-08-30T04:16:53.646Z,99611.94
2022-08-30T04:19:20.240Z,99610.44
2022-08-30T04:21:47.040Z,99608.50
2022-08-30T04:24:13.808Z,99604.84
2022-08-30T04:26:40.332Z,99609.19
2022-08-30T04:29:07.010Z,99606.63
2022-08-30T04:31:33.632Z,99612.31
2022-08-30T04:34:00.162Z,99609.09
2022-08-30T04:36:26.797Z,99605.19
2022-08-30T04:38:53.438Z,99619.81
2022-08-30T04:41:20.904Z,99619.25
2022-08-30T04:43:50.415Z,99621.25
2022-08-30T04:46:18.958Z,99619.75
2022-08-30T04:48:46.712Z,99626.56
2022-08-30T04:51:16.005Z,99627.50
2022-08-30T04:53:43.159Z,99627.78
2022-08-30T04:56:12.656Z,99622.94
2022-08-30T04:58:39.359Z,99631.03
2022-08-30T05:01:12.485Z,99632.88
2022-08-30T05:03:40.926Z,99635.28
2022-08-30T05:06:07.735Z,99635.81
2022-08-30T05:08:35.372Z,99633.81
2022-08-30T05:11:04.757Z,99629.81
2022-08-30T05:13:35.764Z,99638.31
2022-08-30T05:16:05.909Z,99635.66
2022-08-30T05:18:33.304Z,99642.47
2022-08-30T05:21:17.385Z,99644.66
2022-08-30T05:23:44.528Z,99645.41
2022-08-30T05:26:17.809Z,99646.06
2022-08-30T05:28:45.095Z,99646.63
2022-08-30T05:31:22.165Z,99651.38
2022-08-30T05:33:49.824Z,99644.84
2022-08-30T05:36:18.562Z,99647.94
2022-08-30T05:38:45.603Z,99648.50
2022-08-30T05:41:12.744Z,99652.09
2022-08-30T05:43:39.386Z,99655.56
2022-08-30T05:46:12.430Z,99657.28
2022-08-30T05:48:40.161Z,99659.22
2022-08-30T05:51:13.639Z,99650.53
2022-08-30T05:53:41.292Z,99650.81
2022-08-30T05:56:11.218Z,99652.75
2022-08-30T05:58:38.120Z,99652.34
2022-08-30T06:01:05.135Z,99653.78
2022-08-30T06:03:34.830Z,99658.78
2022-08-30T06:06:02.395Z,99649.53
2022-08-30T06:08:29.105Z,99648.56
2022-08-30T06:10:55.571Z,99641.13
2022-08-30T06:13:22.351Z,99631.00
2022-08-30T06:15:49.589Z,99640.47
2022-08-30T06:18:16.380Z,99646.38
2022-08-30T06:20:47.346Z,99635.72
2022-08-30T06:23:17.891Z,99636.41
2022-08-30T06:25:44.957Z,99633.34
2022-08-30T06:28:12.143Z,99634.06
2022-08-30T06:30:40.848Z,99623.56
2022-08-30T06:33:07.435Z,99630.13
2022-08-30T06:35:38.224Z,99626.59
2022-08-30T06:38:08.896Z,99629.97
2022-08-30T06:40:36.407Z,99624.56
2022-08-30T06:43:02.941Z,99615.25
2022-08-30T06:45:31.091Z,99621.84
2022-08-30T06:50:31.978Z,99624.53
2022-08-30T06:53:04.368Z,99619.75
2022-08-30T06:55:33.336Z,99613.59
2022-08-30T06:58:03.724Z,99613.91
2022-08-30T07:00:31.118Z,99620.63
2022-08-30T07:02:58.099Z,99612.09
2022-08-30T07:05:24.701Z,99612.16
2022-08-30T07:07:54.645Z,99613.69
2022-08-30T07:10:21.680Z,99608.88
2022-08-30T07:12:49.438Z,99612.66
2022-08-30T07:15:16.456Z,99616.75
2022-08-30T07:18:01.874Z,99614.34
2022-08-30T07:20:39.822Z,99615.59
2022-08-30T07:23:07.362Z,99613.28
2022-08-30T07:25:33.961Z,99610.25
2022-08-30T07:28:00.401Z,99616.81
2022-08-30T07:30:27.084Z,99612.59
2022-08-30T07:32:53.746Z,99618.63
2022-08-30T07:35:20.351Z,99630.28
2022-08-30T07:37:46.936Z,99619.06
2022-08-30T07:40:13.973Z,99630.69
2022-08-30T07:42:40.979Z,99628.13
2022-08-30T07:45:08.950Z,99632.22
2022-08-30T07:47:36.110Z,99629.84
2022-08-30T07:50:05.056Z,99623.75
2022-08-30T07:52:32.512Z,99621.38
2022-08-30T07:54:59.804Z,99626.81
2022-08-30T07:57:26.446Z,99637.44
2022-08-30T07:59:53.686Z,99625.00
2022-08-30T08:02:20.331Z,99632.69
2022-08-30T08:04:48.431Z,99623.75
2022-08-30T08:07:15.287Z,99625.94
2022-08-30T08:09:42.193Z,99620.53
2022-08-30T08:12:09.231Z,99621.38
2022-08-30T08:14:37.847Z,99623.50
2022-08-30T08:17:05.070Z,99616.97
2022-08-30T08:19:31.746Z,99616.84
2022-08-30T08:22:21.004Z,99623.31
2022-08-30T08:24:46.877Z,99617.25
2022-08-30T08:27:13.514Z,99617.03
2022-08-30T08:29:39.956Z,99620.19
2022-08-30T08:32:06.709Z,99619.13
2022-08-30T08:34:33.368Z,99615.75
2022-08-30T08:37:00.055Z,99619.13
2022-08-30T08:39:26.605Z,99616.59
2022-08-30T08:42:31.889Z,99608.38
2022-08-30T08:45:13.811Z,99610.28
2022-08-30T08:48:04.385Z,99614.69
2022-08-30T08:50:32.084Z,99615.53
2022-08-30T08:53:45.536Z,99602.25
2022-08-30T08:56:12.743Z,99615.06
2022-08-30T08:58:46.960Z,99612.56
2022-08-30T09:01:16.228Z,99606.25
2022-08-30T09:03:44.125Z,99611.69
2022-08-30T09:06:45.300Z,99604.28
2022-08-30T09:09:12.797Z,99597.31
2022-08-30T09:11:42.046Z,99600.66
2022-08-30T09:14:16.841Z,99589.69
2022-08-30T09:16:58.806Z,99594.69
2022-08-30T09:19:49.279Z,99591.72
2022-08-30T09:22:35.502Z,99586.75
2022-08-30T09:25:09.402Z,99583.38
2022-08-30T09:27:41.248Z,99594.00
2022-08-30T09:30:15.207Z,99586.00
2022-08-30T09:32:54.318Z,99579.91
2022-08-30T09:35:46.700Z,99577.78
2022-08-30T09:38:20.173Z,99568.19
2022-08-30T09:40:50.473Z,99563.44
2022-08-30T09:43:17.425Z,99576.56
2022-08-30T09:45:49.963Z,99570.91
2022-08-30T09:48:32.829Z,99566.50
2022-08-30T09:51:11.713Z,99567.56
2022-08-30T09:54:17.469Z,99571.22
2022-08-30T09:57:11.716Z,99564.19
2022-08-30T09:59:57.761Z,99562.81
2022-08-30T10:02:57.917Z,99560.53
2022-08-30T10:06:01.911Z,99557.00
2022-08-30T10:08:44.453Z,99547.97
2022-08-30T10:11:11.064Z,99551.59
2022-08-30T10:13:59.150Z,99531.94
2022-08-30T10:16:38.184Z,99537.72
2022-08-30T10:19:34.294Z,99542.84
2022-08-30T10:22:14.272Z,99537.94
2022-08-30T10:24:49.508Z,99537.13
2022-08-30T10:27:26.661Z,99533.78
2022-08-30T10:30:08.285Z,99541.78
2022-08-30T10:32:47.936Z,99536.31
2022-08-30T10:35:27.845Z,99531.16
2022-08-30T10:38:24.523Z,99532.97
2022-08-30T10:41:13.369Z,99521.91
2022-08-30T10:44:04.276Z,99520.50
2022-08-30T10:47:00.151Z,99512.25
2022-08-30T10:49:29.994Z,99526.47
2022-08-30T10:52:11.631Z,99518.59
2022-08-30T10:54:50.387Z,99526.72
2022-08-30T10:57:20.424Z,99520.00
2022-08-30T11:00:17.616Z,99513.88
2022-08-30T11:03:02.613Z,99513.03
2022-08-30T11:05:54.137Z,99509.34
2022-08-30T11:08:56.908Z,99516.63
2022-08-30T11:11:38.536Z,99514.88
2022-08-30T11:14:11.688Z,99502.72
2022-08-30T11:16:48.683Z,99509.47
2022-08-30T11:19:15.215Z,99506.47
2022-08-30T11:21:44.308Z,99510.84
2022-08-30T11:24:22.304Z,99500.16
2022-08-30T11:26:48.684Z,99499.88
2022-08-30T11:29:31.713Z,99503.59
2022-08-30T11:32:18.648Z,99502.97
2022-08-30T11:34:47.444Z,99495.28
2022-08-30T11:37:38.894Z,99496.41
2022-08-30T11:40:26.205Z,99496.53
2022-08-30T11:42:55.627Z,99494.91
2022-08-30T11:45:22.082Z,99487.97
2022-08-30T11:47:59.580Z,99487.97
2022-08-30T11:50:34.335Z,99490.63
2022-08-30T11:53:13.832Z,99478.00
2022-08-30T11:56:00.702Z,99484.47
2022-08-30T11:58:37.742Z,99481.16
2022-08-30T12:01:42.258Z,99474.63
2022-08-30T12:04:07.737Z,99472.34
2022-08-30T12:06:41.713Z,99477.53
2022-08-30T12:09:30.243Z,99466.88
2022-08-30T12:12:04.939Z,99468.19
2022-08-30T12:14:37.322Z,99468.44
2022-08-30T12:17:36.176Z,99465.75
2022-08-30T12:20:05.006Z,99463.28
2022-08-30T12:22:37.742Z,99458.03
2022-08-30T12:25:18.963Z,99467.66
2022-08-30T12:27:46.789Z,99463.25
2022-08-30T12:30:14.295Z,99461.38
2022-08-30T12:32:50.539Z,99466.00
2022-08-30T12:35:27.950Z,99469.16
2022-08-30T12:38:05.824Z,99459.44
2022-08-30T12:40:34.486Z,99457.34
2022-08-30T12:43:06.589Z,99463.63
2022-08-30T12:45:42.887Z,99453.72
2022-08-30T12:48:17.510Z,99455.00
2022-08-30T12:50:56.361Z,99453.59
2022-08-30T12:53:38.040Z,99454.50
2022-08-30T12:56:07.472Z,99453.22
2022-08-30T12:58:36.795Z,99449.44
2022-08-30T13:01:36.700Z,99454.25
2022-08-30T13:04:23.202Z,99446.06
2022-08-30T13:06:51.298Z,99452.59
2022-08-30T13:09:42.751Z,99449.38
2022-08-30T13:12:30.399Z,99444.28
2022-08-30T13:15:27.637Z,99447.72
2022-08-30T13:18:12.439Z,99440.88
2022-08-30T13:20:39.974Z,99430.16
2022-08-30T13:23:11.194Z,99438.31
2022-08-30T13:25:39.639Z,99430.16
2022-08-30T13:28:07.791Z,99425.66
2022-08-30T13:30:35.393Z,99422.06
2022-08-30T13:33:02.634Z,99428.72
2022-08-30T13:35:30.453Z,99420.00
2022-08-30T13:37:59.876Z,99415.28
2022-08-30T13:40:26.491Z,99413.28
2022-08-30T13:42:53.168Z,99411.56
2022-08-30T13:48:07.495Z,99410.63
2022-08-30T13:50:33.966Z,99418.66
2022-08-30T13:53:00.750Z,99412.84
2022-08-30T13:55:28.813Z,99419.44
2022-08-30T13:57:56.647Z,99419.63
2022-08-30T14:00:25.614Z,99406.13
2022-08-30T14:02:55.880Z,99413.03
2022-08-30T14:11:06.431Z,99410.50
2022-08-30T14:13:33.140Z,99407.69
2022-08-30T14:18:49.587Z,99400.38
2022-08-30T14:21:17.401Z,99393.38
2022-08-30T14:23:48.329Z,99405.06
2022-08-30T14:26:23.908Z,99396.69
2022-08-30T14:28:51.857Z,99396.06
2022-08-30T14:31:20.217Z,99388.41
2022-08-30T14:33:47.322Z,99377.19
2022-08-30T14:36:15.714Z,99373.16
2022-08-30T14:38:42.836Z,99378.97
2022-08-30T14:41:10.873Z,99376.34
2022-08-30T14:43:40.169Z,99387.06
2022-08-30T14:46:08.933Z,99390.97
2022-08-30T14:48:37.377Z,99382.94
2022-08-30T14:51:16.695Z,99378.91
2022-08-30T14:53:44.618Z,99374.53
2022-08-30T14:56:14.321Z,99368.94
2022-08-30T14:58:41.374Z,99366.28
2022-08-30T15:01:09.525Z,99367.31
2022-08-30T15:03:38.111Z,99368.13
2022-08-30T15:06:06.362Z,99363.38
2022-08-30T15:08:34.704Z,99364.72
2022-08-30T15:11:02.336Z,99351.91
2022-08-30T15:13:28.948Z,99358.59
2022-08-30T15:15:56.583Z,99354.56
2022-08-30T15:18:24.956Z,99351.88
2022-08-30T15:20:56.143Z,99352.16
2022-08-30T15:23:24.815Z,99353.38
2022-08-30T15:25:55.424Z,99345.34
2022-08-30T15:28:27.464Z,99344.53
2022-08-30T15:30:56.064Z,99345.88
2022-08-30T15:33:23.564Z,99341.81
2022-08-30T15:35:52.317Z,99340.72
2022-08-30T15:38:19.511Z,99329.81
2022-08-30T15:40:50.013Z,99338.72
2022-08-30T15:43:17.070Z,99332.13
2022-08-30T15:45:44.186Z,99320.97
2022-08-30T15:48:12.113Z,99332.09
2022-08-30T15:50:38.877Z,99325.25
2022-08-30T15:53:07.364Z,99331.53
2022-08-30T15:55:34.209Z,99322.88
2022-08-30T15:58:00.764Z,99317.47
2022-08-30T16:00:27.339Z,99314.59
2022-08-30T16:02:53.998Z,99311.66
2022-08-30T16:05:23.602Z,99317.75
2022-08-30T16:07:51.240Z,99314.59
2022-08-30T16:10:18.448Z,99316.31
2022-08-30T16:12:45.202Z,99312.47
2022-08-30T16:15:12.583Z,99302.72
2022-08-30T16:17:39.308Z,99308.59
2022-08-30T16:20:06.980Z,99311.16
2022-08-30T16:22:33.610Z,99309.44
2022-08-30T16:25:00.346Z,99312.50
2022-08-30T16:27:26.801Z,99312.38
2022-08-30T16:29:53.417Z,99311.94
2022-08-30T16:32:20.253Z,99307.84
2022-08-30T16:34:46.914Z,99308.94
2022-08-30T16:37:13.415Z,99306.44
2022-08-30T16:39:40.267Z,99301.56
2022-08-30T16:42:12.914Z,99305.75
2022-08-30T16:44:40.265Z,99301.81
2022-08-30T16:47:10.209Z,99304.66
2022-08-30T16:49:40.190Z,99301.00
2022-08-30T16:52:06.697Z,99297.00
2022-08-30T16:54:33.668Z,99295.38
2022-08-30T16:57:00.377Z,99291.34
2022-08-30T16:59:26.988Z,99288.97
2022-08-30T17:01:53.587Z,99289.63
2022-08-30T17:04:21.408Z,99294.84
2022-08-30T17:06:50.122Z,99290.28
2022-08-30T17:09:18.724Z,99300.72
2022-08-30T17:11:45.801Z,99303.66
2022-08-30T17:14:12.665Z,99303.41
2022-08-30T17:16:41.293Z,99301.06
2022-08-30T17:19:09.021Z,99305.66
2022-08-30T17:21:36.037Z,99305.72
2022-08-30T17:24:03.169Z,99312.41
2022-08-30T17:26:31.875Z,99312.88
2022-08-30T17:28:59.071Z,99315.53
2022-08-30T17:31:29.400Z,99317.44
2022-08-30T17:34:03.008Z,99321.69
2022-08-30T17:36:31.409Z,99319.72
2022-08-30T17:38:58.062Z,99332.06
2022-08-30T17:41:24.489Z,99335.31
2022-08-30T17:43:51.320Z,99338.63
2022-08-30T17:46:18.754Z,99337.59
2022-08-30T17:48:46.328Z,99340.22
2022-08-30T17:51:13.450Z,99353.84
2022-08-30T17:53:40.336Z,99352.41
2022-08-30T17:56:09.941Z,99359.06
2022-08-30T17:58:36.551Z,99361.19
2022-08-30T18:01:13.340Z,99354.66
2022-08-30T18:03:42.042Z,99372.25
2022-08-30T18:06:12.380Z,99371.25
2022-08-30T18:08:39.042Z,99375.03
2022-08-30T18:11:06.130Z,99374.72
2022-08-30T18:13:33.299Z,99377.13
2022-08-30T18:16:04.064Z,99377.09
2022-08-30T18:18:31.122Z,99376.56
2022-08-30T18:20:58.731Z,99384.91
2022-08-30T18:23:26.712Z,99385.06
2022-08-30T18:25:59.781Z,99392.09
2022-08-30T18:28:27.439Z,99396.03
2022-08-30T18:30:58.205Z,99395.47
2022-08-30T18:33:26.323Z,99393.88
2022-08-30T18:35:55.597Z,99395.00
2022-08-30T18:38:23.884Z,99403.31
2022-08-30T18:40:51.849Z,99399.56
2022-08-30T18:43:18.720Z,99397.47
2022-08-30T18:45:57.131Z,99402.16
2022-08-30T18:48:23.724Z,99401.47
2022-08-30T18:50:53.876Z,99394.63
2022-08-30T18:53:28.445Z,99406.06
2022-08-30T18:55:56.885Z,99406.91
2022-08-30T18:58:23.501Z,99401.56
2022-08-30T19:00:50.003Z,99411.03
2022-08-30T19:03:18.293Z,99411.03
2022-08-30T19:05:45.888Z,99411.28
2022-08-30T19:08:13.631Z,99417.53
2022-08-30T19:10:40.820Z,99419.66
2022-08-30T19:13:07.541Z,99430.19
2022-08-30T19:15:34.373Z,99419.75
2022-08-30T19:18:16.693Z,99416.81
2022-08-30T19:20:45.043Z,99418.06
2022-08-30T19:23:12.080Z,99413.66
2022-08-30T19:25:42.541Z,99418.34
2022-08-30T19:28:10.287Z,99425.34
2022-08-30T19:30:36.900Z,99413.97
2022-08-30T19:33:03.605Z,99409.34
2022-08-30T19:35:32.378Z,99421.59
2022-08-30T19:37:59.368Z,99425.75
2022-08-30T19:40:25.966Z,99418.66
2022-08-30T19:42:53.678Z,99423.72
2022-08-30T19:45:21.628Z,99429.63
2022-08-30T19:47:49.443Z,99423.34
2022-08-30T19:50:16.804Z,99426.31
2022-08-30T19:52:45.664Z,99429.28
2022-08-30T19:55:14.452Z,99427.41
2022-08-30T19:57:43.478Z,99430.81
2022-08-30T20:00:12.703Z,99435.41
2022-08-30T20:02:44.359Z,99429.75
2022-08-30T20:05:18.287Z,99423.47
2022-08-30T20:07:45.180Z,99429.38
2022-08-30T20:10:15.125Z,99427.72
2022-08-30T20:12:46.903Z,99424.38
2022-08-30T20:15:17.739Z,99424.97
2022-08-30T20:18:03.358Z,99433.59
2022-08-30T20:20:33.321Z,99434.47
2022-08-30T20:23:00.423Z,99433.19
2022-08-30T20:25:28.806Z,99437.41
2022-08-30T20:27:56.668Z,99440.13
2022-08-30T20:30:23.208Z,99437.84
2022-08-30T20:32:49.893Z,99426.50
2022-08-30T20:35:17.686Z,99433.81
2022-08-30T20:37:46.082Z,99440.97
2022-08-30T20:40:16.139Z,99438.88
2022-08-30T20:42:46.323Z,99439.94
2022-08-30T20:45:15.097Z,99445.19
2022-08-30T20:47:42.844Z,99447.31
2022-08-30T20:50:15.638Z,99450.25
2022-08-30T20:52:42.531Z,99451.28
2022-08-30T20:55:10.439Z,99452.97
2022-08-30T20:57:37.028Z,99445.19
2022-08-30T21:00:10.864Z,99445.81
2022-08-30T21:02:46.944Z,99446.69
2022-08-30T21:05:16.663Z,99444.56
2022-08-30T21:07:46.610Z,99444.56
2022-08-30T21:10:18.861Z,99450.00
2022-08-30T21:12:49.509Z,99455.88
2022-08-30T21:15:36.423Z,99460.50
2022-08-30T21:18:03.147Z,99461.34
2022-08-30T21:20:29.688Z,99446.84
2022-08-30T21:22:56.150Z,99461.13
2022-08-30T21:25:22.712Z,99463.84
2022-08-30T21:27:49.167Z,99460.69
2022-08-30T21:30:15.817Z,99470.16
2022-08-30T21:32:42.346Z,99465.53
2022-08-30T21:35:33.531Z,99463.63
2022-08-30T21:38:00.193Z,99457.97
2022-08-30T21:40:27.259Z,99469.91
2022-08-30T21:42:53.823Z,99464.63
2022-08-30T21:45:20.377Z,99470.53
2022-08-30T21:47:46.939Z,99477.66
2022-08-30T21:50:13.507Z,99474.09
2022-08-30T21:52:40.183Z,99478.25
2022-08-30T21:55:07.250Z,99477.81
2022-08-30T21:57:33.694Z,99478.66
2022-08-30T22:00:00.242Z,99485.56
2022-08-30T22:02:27.045Z,99484.53
2022-08-30T22:04:54.469Z,99482.41
2022-08-30T22:07:21.069Z,99484.69
2022-08-30T22:09:47.684Z,99483.00
2022-08-30T22:12:14.201Z,99484.69
2022-08-30T22:14:40.988Z,99486.19
2022-08-30T22:17:07.569Z,99487.03
2022-08-30T22:19:34.314Z,99482.81
2022-08-30T22:22:01.695Z,99491.06
2022-08-30T22:24:32.502Z,99485.78
2022-08-30T22:27:00.625Z,99491.47
2022-08-30T22:29:27.248Z,99485.78
2022-08-30T22:31:54.216Z,99491.00
2022-08-30T22:34:21.287Z,99491.41
2022-08-30T22:36:47.781Z,99494.56
2022-08-30T22:39:14.517Z,99497.06
2022-08-30T22:41:42.817Z,99491.84
2022-08-30T22:44:10.142Z,99496.00
2022-08-30T22:46:36.846Z,99492.00
2022-08-30T22:49:06.148Z,99506.44
2022-08-30T22:51:33.662Z,99492.56
2022-08-30T22:54:01.445Z,99503.88
2022-08-30T22:56:29.138Z,99498.81
2022-08-30T22:58:55.934Z,99499.50
2022-08-30T23:01:26.549Z,99498.84
2022-08-30T23:03:53.810Z,99499.50
2022-08-30T23:06:21.053Z,99506.84
2022-08-30T23:08:47.944Z,99510.19
2022-08-30T23:11:15.489Z,99515.84
2022-08-30T23:13:43.468Z,99516.91
2022-08-30T23:16:12.064Z,99512.91
2022-08-30T23:18:40.331Z,99506.84
2022-08-30T23:21:10.838Z,99513.72
2022-08-30T23:23:56.780Z,99510.13
2022-08-30T23:26:42.558Z,99519.94
2022-08-30T23:29:28.017Z,99514.66
2022-08-30T23:32:13.825Z,99507.91
2022-08-30T23:34:59.601Z,99509.97
2022-08-30T23:37:44.664Z,99526.06
2022-08-30T23:40:36.198Z,99522.44
2022-08-30T23:43:21.672Z,99524.53
2022-08-30T23:46:06.849Z,99520.78
2022-08-30T23:48:52.398Z,99518.25
2022-08-30T23:51:37.800Z,99521.19
2022-08-30T23:54:24.682Z,99515.94
2022-08-30T23:57:10.282Z,99518.59
2022-08-30T23:59:56.266Z,99520.88
